Time;durP1;ratioP1;P1;durP2;ratioP2;P2;SDS_P1;SDS_P2;PMS_P1;PMS_P2;Temp;Humidity;BMP_temperature;BMP_pressure;BME280_temperature;BME280_humidity;BME280_pressure;Samples;Min_cycle;Max_cycle;Signal;HPM_P1;HPM_P2
2021/12/13 00:00:57;;;;;;;13.40;6.90;;;;;;;1.73;68.66;99979.91;24455;1359;3027820;-57
2021/12/13 00:03:34;;;;;;;19.70;8.30;;;;;;;1.80;68.36;99977.05;24492;1361;3054920;-57
2021/12/13 00:06:12;;;;;;;14.20;7.30;;;;;;;1.71;68.50;99967.54;24476;1354;3052547;-58
2021/12/13 00:08:43;;;;;;;14.10;7.40;;;;;;;1.48;69.03;99960.30;24463;1355;3054632;-54
2021/12/13 00:11:18;;;;;;;15.80;8.50;;;;;;;1.33;69.44;99954.99;24490;1361;3026665;-56
2021/12/13 00:13:54;;;;;;;14.00;7.60;;;;;;;1.19;69.83;99959.86;24477;1361;3052545;-58
2021/12/13 00:16:36;;;;;;;14.40;8.50;;;;;;;1.06;70.54;99956.92;24466;1358;3051623;-57
2021/12/13 00:19:11;;;;;;;17.30;9.10;;;;;;;0.95;70.68;99954.67;24507;1361;3071722;-57
2021/12/13 00:21:43;;;;;;;17.50;9.00;;;;;;;0.85;71.28;99950.84;24465;1355;3051498;-58
2021/12/13 00:24:19;;;;;;;22.40;9.10;;;;;;;0.85;71.08;99939.96;24472;1361;3026761;-60
2021/12/13 00:26:51;;;;;;;23.80;9.30;;;;;;;0.79;71.27;99943.84;24491;1354;3054469;-56
2021/12/13 00:29:23;;;;;;;18.30;9.00;;;;;;;0.61;71.96;99952.50;24472;1361;3027984;-57
2021/12/13 00:32:19;;;;;;;19.70;9.00;;;;;;;0.61;71.86;99954.41;24456;1361;3026667;-54
2021/12/13 00:34:54;;;;;;;17.90;9.50;;;;;;;0.55;72.15;99954.14;24466;1352;3053552;-56
2021/12/13 00:37:24;;;;;;;21.20;9.50;;;;;;;0.62;72.21;99954.22;24522;1346;3051054;-59
2021/12/13 00:40:27;;;;;;;22.00;9.00;;;;;;;0.55;72.46;99954.83;24444;1355;3026310;-59
2021/12/13 00:43:05;;;;;;;15.80;7.20;;;;;;;1.29;70.29;99946.08;24432;1361;3049726;-56
2021/12/13 00:45:38;;;;;;;17.40;8.20;;;;;;;1.54;68.88;99947.23;24486;1356;3052275;-54
2021/12/13 00:48:13;;;;;;;14.30;7.40;;;;;;;1.58;68.78;99943.04;24445;1354;3055602;-56
2021/12/13 00:51:05;;;;;;;18.10;9.10;;;;;;;1.41;69.16;99939.33;24507;1355;3026511;-58
2021/12/13 00:53:39;;;;;;;16.80;9.30;;;;;;;1.19;69.82;99939.31;24452;1356;3052241;-58
2021/12/13 00:56:46;;;;;;;16.00;8.60;;;;;;;0.98;70.56;99934.95;24474;1361;3055324;-58
2021/12/13 00:59:30;;;;;;;17.20;8.20;;;;;;;0.77;71.44;99919.88;24474;1360;3058711;-58
2021/12/13 01:02:07;;;;;;;14.40;7.50;;;;;;;0.74;71.37;99917.52;24474;1355;3052652;-57
2021/12/13 01:04:59;;;;;;;16.90;9.30;;;;;;;0.67;71.91;99920.55;24470;1361;3055498;-58
2021/12/13 01:08:04;;;;;;;19.90;9.80;;;;;;;0.60;72.38;99914.41;24482;1362;3053089;-57
2021/12/13 01:10:42;;;;;;;23.90;9.40;;;;;;;0.51;72.59;99915.40;24515;1355;3067863;-57
2021/12/13 01:13:48;;;;;;;16.20;9.20;;;;;;;0.53;72.69;99907.45;24450;1355;3051574;-56
2021/12/13 01:19:29;;;;;;;20.60;8.00;;;;;;;0.36;73.19;99918.68;24524;1359;3055376;-54
2021/12/13 01:27:32;;;;;;;14.60;8.30;;;;;;;1.61;68.86;99905.88;24470;1361;3026551;-57
2021/12/13 01:30:02;;;;;;;23.20;10.00;;;;;;;1.48;69.21;99904.68;24501;1358;3050998;-58
2021/12/13 01:32:41;;;;;;;21.50;8.90;;;;;;;1.36;69.62;99901.44;24445;1361;3026540;-58
2021/12/13 01:35:19;;;;;;;19.20;9.80;;;;;;;1.12;69.97;99902.14;24414;1355;3048999;-55
2021/12/13 01:37:52;;;;;;;19.10;9.30;;;;;;;0.90;70.59;99887.45;24469;1358;3055253;-56
2021/12/13 01:40:26;;;;;;;21.20;9.90;;;;;;;0.84;70.78;99891.52;24466;1359;3026807;-57
2021/12/13 01:43:07;;;;;;;17.90;8.90;;;;;;;0.74;71.43;99889.06;24510;1361;3058270;-57
2021/12/13 01:45:38;;;;;;;20.60;9.30;;;;;;;0.73;71.62;99890.45;24467;1359;3050345;-55
2021/12/13 01:48:07;;;;;;;20.30;9.90;;;;;;;0.67;72.15;99882.95;24451;1359;3028195;-56
2021/12/13 01:50:47;;;;;;;21.20;9.90;;;;;;;0.66;72.24;99897.80;24481;1355;3026466;-57
2021/12/13 01:53:17;;;;;;;17.90;9.40;;;;;;;0.56;72.21;99905.68;24467;1355;3050462;-55
2021/12/13 01:55:47;;;;;;;19.70;9.80;;;;;;;0.37;72.72;99913.15;24478;1358;3026567;-57
2021/12/13 02:01:10;;;;;;;15.50;8.20;;;;;;;0.33;73.16;99900.45;24439;1355;3029625;-56
2021/12/13 02:04:00;;;;;;;16.50;5.80;;;;;;;1.00;71.26;99887.14;24519;1361;3055324;-56
2021/12/13 02:06:29;;;;;;;19.70;6.60;;;;;;;1.51;69.63;99892.23;24445;1356;3052442;-60
2021/12/13 02:09:02;;;;;;;11.70;7.40;;;;;;;1.56;68.89;99892.49;24497;1360;3028521;-57
2021/12/13 02:11:32;;;;;;;21.80;7.60;;;;;;;1.46;68.92;99891.96;24504;1361;3051421;-59
2021/12/13 02:14:12;;;;;;;18.50;7.40;;;;;;;1.26;69.48;99889.52;24467;1360;3026762;-60
2021/12/13 02:17:00;;;;;;;13.70;7.50;;;;;;;1.11;70.06;99893.20;24494;1355;3053087;-56
2021/12/13 02:19:38;;;;;;;15.50;7.50;;;;;;;0.90;70.85;99893.50;24473;1358;3059510;-58
2021/12/13 02:22:38;;;;;;;15.10;7.80;;;;;;;0.67;71.48;99894.67;24454;1361;3052815;-57
2021/12/13 02:25:29;;;;;;;17.60;7.80;;;;;;;0.58;71.78;99898.77;24472;1361;3054435;-56
2021/12/13 02:28:04;;;;;;;13.50;7.50;;;;;;;0.39;72.35;99893.14;24449;1361;3055317;-57
2021/12/13 02:30:54;;;;;;;16.30;7.50;;;;;;;0.43;72.32;99894.12;24480;1361;3070950;-55
2021/12/13 02:33:35;;;;;;;18.50;7.20;;;;;;;0.43;72.46;99891.36;24414;1361;3051860;-57
2021/12/13 02:36:25;;;;;;;17.70;8.10;;;;;;;0.47;72.40;99893.20;24366;1357;3051954;-55
2021/12/13 02:38:57;;;;;;;12.70;8.00;;;;;;;0.47;72.60;99893.21;24394;1363;3052633;-54
2021/12/13 02:41:27;;;;;;;18.90;9.70;;;;;;;0.49;72.93;99889.73;24427;1362;3026815;-58
2021/12/13 02:44:05;;;;;;;20.00;9.50;;;;;;;0.48;73.02;99878.71;24370;1358;3027175;-57
2021/12/13 02:46:36;;;;;;;15.40;7.90;;;;;;;1.16;71.35;99866.88;24387;1352;3053926;-56
2021/12/13 02:49:10;;;;;;;19.40;7.40;;;;;;;1.55;69.29;99871.09;24456;1359;3026582;-56
2021/12/13 02:51:42;;;;;;;17.70;7.70;;;;;;;1.61;68.91;99865.63;24419;1362;3068954;-58
2021/12/13 02:54:16;;;;;;;13.70;7.50;;;;;;;1.52;68.92;99872.17;24364;1361;3026437;-56
2021/12/13 02:56:50;;;;;;;22.90;8.30;;;;;;;1.33;69.59;99874.91;24441;1352;3051853;-56
2021/12/13 02:59:21;;;;;;;19.30;9.50;;;;;;;1.22;69.86;99877.48;24428;1355;3054236;-54
2021/12/13 03:02:07;;;;;;;19.00;10.70;;;;;;;1.13;70.45;99872.30;24488;1359;3058860;-57
2021/12/13 03:04:37;;;;;;;24.20;10.20;;;;;;;0.95;70.84;99867.55;24496;1362;3052716;-57
2021/12/13 03:07:18;;;;;;;21.60;10.80;;;;;;;0.92;71.25;99869.67;24503;1359;3026365;-55
2021/12/13 03:09:49;;;;;;;17.40;9.50;;;;;;;0.83;71.48;99869.96;24526;1359;3053929;-59
2021/12/13 03:12:18;;;;;;;16.80;9.20;;;;;;;0.72;71.66;99881.33;24440;1361;3027100;-60
2021/12/13 03:14:55;;;;;;;20.50;8.50;;;;;;;0.65;72.16;99884.52;24449;1355;3026752;-58
2021/12/13 03:17:34;;;;;;;21.20;9.20;;;;;;;0.59;72.18;99889.95;24467;1355;3052603;-56
2021/12/13 03:20:18;;;;;;;19.20;9.80;;;;;;;0.55;72.43;99882.92;24450;1356;3052246;-55
2021/12/13 03:23:07;;;;;;;25.10;11.40;;;;;;;0.58;72.34;99876.86;24475;1361;3057727;-58
2021/12/13 03:26:08;;;;;;;22.20;9.60;;;;;;;0.52;72.64;99880.73;24466;1361;3051752;-58
2021/12/13 03:29:12;;;;;;;16.80;7.60;;;;;;;0.41;73.00;99881.23;24485;1362;3055617;-57
2021/12/13 03:31:44;;;;;;;23.20;10.20;;;;;;;0.38;73.06;99872.80;24472;1359;3052672;-55
2021/12/13 03:34:22;;;;;;;19.90;9.20;;;;;;;0.39;73.19;99869.86;24451;1355;3026854;-59
2021/12/13 03:37:11;;;;;;;13.70;6.60;;;;;;;1.03;71.66;99863.63;24491;1355;3048247;-56
2021/12/13 03:39:41;;;;;;;13.50;6.60;;;;;;;1.68;69.34;99864.98;24482;1361;3055349;-54
2021/12/13 03:42:21;;;;;;;17.20;7.40;;;;;;;1.61;68.88;99862.86;24488;1360;3027541;-55
2021/12/13 03:44:52;;;;;;;19.50;7.70;;;;;;;1.54;69.17;99861.08;24463;1354;3056646;-58
2021/12/13 03:47:30;;;;;;;18.60;8.20;;;;;;;1.26;70.00;99853.80;24440;1355;3028943;-58
2021/12/13 03:50:00;;;;;;;16.80;7.60;;;;;;;1.07;70.64;99850.48;24474;1360;3055304;-58
2021/12/13 03:52:30;;;;;;;19.20;8.30;;;;;;;1.13;70.50;99857.79;24461;1361;3027381;-59
2021/12/13 03:55:02;;;;;;;19.90;10.00;;;;;;;0.99;71.20;99862.33;24466;1356;3029127;-55
2021/12/13 03:57:31;;;;;;;16.10;9.70;;;;;;;0.90;71.48;99865.72;24449;1355;3026613;-57
2021/12/13 04:00:01;;;;;;;16.50;9.00;;;;;;;0.90;71.48;99860.38;24470;1359;3026351;-54
2021/12/13 04:02:32;;;;;;;18.40;9.00;;;;;;;0.77;71.87;99861.09;24433;1358;3026890;-58
2021/12/13 04:05:08;;;;;;;21.10;9.40;;;;;;;0.67;72.44;99864.15;24493;1355;3026577;-59
2021/12/13 04:07:41;;;;;;;18.60;9.10;;;;;;;0.63;72.75;99869.73;24476;1361;3048144;-57
2021/12/13 04:10:20;;;;;;;17.00;10.30;;;;;;;0.69;72.46;99878.79;24578;1359;3052013;-61
2021/12/13 04:12:52;;;;;;;24.00;10.00;;;;;;;0.67;72.79;99873.46;24466;1361;3053115;-56
2021/12/13 04:15:46;;;;;;;19.80;9.70;;;;;;;0.71;72.38;99868.08;24471;1358;3026491;-59
2021/12/13 04:18:30;;;;;;;28.30;9.40;;;;;;;0.63;72.94;99866.79;24512;1362;3049401;-58
2021/12/13 04:21:05;;;;;;;19.40;9.80;;;;;;;0.58;72.85;99858.23;24488;1361;3055043;-57
2021/12/13 04:23:36;;;;;;;27.40;10.00;;;;;;;0.57;73.46;99857.73;24493;1362;3054792;-57
2021/12/13 04:26:06;;;;;;;15.90;7.20;;;;;;;1.05;72.15;99849.80;24459;1360;3029171;-57
2021/12/13 04:28:47;;;;;;;17.80;6.90;;;;;;;1.47;70.29;99853.45;24489;1361;3052559;-56
2021/12/13 04:31:19;;;;;;;16.40;8.00;;;;;;;1.47;69.50;99849.98;24487;1351;3052828;-54
2021/12/13 04:33:51;;;;;;;14.40;7.40;;;;;;;1.52;69.70;99842.81;24438;1355;3027505;-56
2021/12/13 04:36:26;;;;;;;18.00;7.50;;;;;;;1.32;70.03;99842.98;24457;1359;3026526;-57
2021/12/13 04:39:27;;;;;;;14.70;8.10;;;;;;;1.17;70.52;99845.83;24496;1355;3055746;-57
2021/12/13 04:41:59;;;;;;;21.70;8.50;;;;;;;0.93;71.00;99843.44;24482;1353;3051090;-57
2021/12/13 04:44:52;;;;;;;18.70;7.90;;;;;;;0.83;71.93;99847.05;24475;1355;3026706;-56
2021/12/13 04:48:02;;;;;;;23.50;9.30;;;;;;;0.81;72.06;99842.92;24449;1361;3048839;-58
2021/12/13 04:50:45;;;;;;;20.60;8.60;;;;;;;0.77;72.35;99842.30;24531;1361;3055306;-55
2021/12/13 04:53:21;;;;;;;17.60;8.80;;;;;;;0.68;72.56;99852.41;24492;1355;3050143;-56
2021/12/13 04:55:50;;;;;;;21.00;9.80;;;;;;;0.66;72.76;99847.96;24453;1353;3056659;-57
2021/12/13 04:58:19;;;;;;;26.40;9.30;;;;;;;0.75;72.62;99847.16;24441;1360;3026770;-57
2021/12/13 05:00:51;;;;;;;17.50;9.30;;;;;;;0.69;72.73;99854.65;24456;1355;3026444;-59
2021/12/13 05:03:22;;;;;;;19.80;10.10;;;;;;;0.70;73.02;99854.63;24412;1359;3055343;-58
2021/12/13 05:05:51;;;;;;;18.00;8.80;;;;;;;0.71;73.03;99859.98;24480;1358;3027539;-58
2021/12/13 05:08:20;;;;;;;21.30;9.40;;;;;;;0.68;73.02;99860.86;24453;1358;3026407;-59
2021/12/13 05:10:49;;;;;;;17.40;10.00;;;;;;;0.64;72.84;99857.99;24424;1355;3057679;-59
2021/12/13 05:13:24;;;;;;;20.50;9.30;;;;;;;0.55;73.32;99855.52;24487;1355;3026478;-58
2021/12/13 05:15:56;;;;;;;20.10;9.20;;;;;;;0.34;74.20;99854.77;24456;1354;3052072;-56
2021/12/13 05:18:30;;;;;;;17.90;8.00;;;;;;;1.10;72.54;99848.69;24475;1355;3026177;-58
2021/12/13 05:21:05;;;;;;;14.40;7.60;;;;;;;1.57;70.12;99850.00;24452;1359;3049704;-58
2021/12/13 05:24:16;;;;;;;17.50;8.80;;;;;;;1.52;69.90;99852.14;24462;1355;3055603;-58
2021/12/13 05:26:53;;;;;;;22.10;9.90;;;;;;;1.45;69.84;99843.29;24370;1355;3051159;-57
2021/12/13 05:29:45;;;;;;;15.20;8.30;;;;;;;1.28;70.62;99838.40;24431;1362;3070601;-58
2021/12/13 05:32:17;;;;;;;21.60;9.90;;;;;;;1.04;71.43;99842.41;24507;1356;3048233;-61
2021/12/13 05:34:54;;;;;;;22.70;10.50;;;;;;;0.84;72.19;99842.54;24454;1359;3026194;-56
2021/12/13 05:37:23;;;;;;;22.20;10.50;;;;;;;0.72;72.66;99844.43;24444;1362;3051663;-56
2021/12/13 05:40:23;;;;;;;21.90;8.80;;;;;;;0.76;72.58;99855.76;24474;1356;3026933;-57
2021/12/13 05:42:54;;;;;;;22.50;11.20;;;;;;;0.76;72.79;99870.25;24463;1359;3050419;-59
2021/12/13 05:45:43;;;;;;;24.00;11.30;;;;;;;0.62;73.49;99873.70;24470;1359;3027029;-58
2021/12/13 05:48:16;;;;;;;21.30;10.50;;;;;;;0.60;73.45;99875.11;24527;1358;3054300;-57
2021/12/13 05:50:49;;;;;;;20.80;9.80;;;;;;;0.51;73.78;99874.71;24462;1358;3026354;-57
2021/12/13 05:53:19;;;;;;;21.60;10.80;;;;;;;0.41;74.25;99875.19;24463;1355;3026887;-58
2021/12/13 05:56:06;;;;;;;21.30;11.10;;;;;;;0.43;73.93;99862.23;24514;1358;3027283;-58
2021/12/13 05:58:54;;;;;;;22.60;10.10;;;;;;;0.40;74.36;99864.69;24521;1361;3054589;-60
2021/12/13 06:01:31;;;;;;;24.60;8.70;;;;;;;1.01;72.63;99859.00;24447;1355;3058912;-57
2021/12/13 06:04:06;;;;;;;21.60;9.60;;;;;;;1.51;70.98;99857.86;24476;1358;3052231;-58
2021/12/13 06:06:47;;;;;;;22.20;10.20;;;;;;;1.73;69.75;99864.38;24475;1358;3053470;-60
2021/12/13 06:09:39;;;;;;;18.30;9.90;;;;;;;1.55;70.15;99865.55;24514;1355;3050426;-58
2021/12/13 06:12:23;;;;;;;23.60;11.10;;;;;;;1.43;70.85;99866.45;24471;1355;3068610;-57
2021/12/13 06:14:53;;;;;;;21.80;10.90;;;;;;;1.36;71.16;99867.95;24503;1355;3048763;-58
2021/12/13 06:17:32;;;;;;;23.80;10.40;;;;;;;1.21;71.51;99866.29;24482;1358;3027245;-58
2021/12/13 06:20:11;;;;;;;18.00;10.60;;;;;;;1.03;72.17;99867.27;24438;1355;3068402;-60
2021/12/13 06:22:40;;;;;;;22.10;9.80;;;;;;;1.04;72.12;99867.08;24470;1362;3048994;-57
2021/12/13 06:25:12;;;;;;;15.50;9.90;;;;;;;0.82;72.79;99864.80;24433;1363;3026534;-59
2021/12/13 06:27:43;;;;;;;29.60;11.60;;;;;;;0.78;72.89;99863.64;24470;1353;3068565;-61
2021/12/13 06:30:32;;;;;;;22.70;10.10;;;;;;;0.72;73.40;99878.23;24504;1349;3027273;-59
2021/12/13 06:33:11;;;;;;;21.00;11.20;;;;;;;0.78;73.28;99874.70;24459;1358;3052471;-60
2021/12/13 06:35:48;;;;;;;19.70;11.20;;;;;;;0.70;73.56;99871.36;24446;1361;3054651;-63
2021/12/13 06:38:20;;;;;;;21.50;11.00;;;;;;;0.75;73.58;99875.09;24483;1358;3058831;-60
2021/12/13 06:40:50;;;;;;;17.80;11.00;;;;;;;0.75;73.61;99875.78;24475;1355;3026802;-58
2021/12/13 06:43:32;;;;;;;26.00;11.40;;;;;;;0.78;73.63;99876.42;24456;1351;3027507;-59
2021/12/13 06:46:05;;;;;;;19.10;11.10;;;;;;;0.88;73.69;99874.56;24498;1355;3051363;-60
2021/12/13 06:48:38;;;;;;;22.60;9.60;;;;;;;1.55;72.04;99886.77;24446;1358;3026299;-60
2021/12/13 06:51:09;;;;;;;24.10;9.80;;;;;;;2.06;69.78;99887.11;24407;1355;3026363;-60
2021/12/13 06:53:38;;;;;;;18.80;11.10;;;;;;;2.28;69.14;99882.35;24475;1361;3026987;-60
2021/12/13 06:56:25;;;;;;;21.80;11.00;;;;;;;2.11;69.18;99881.83;24503;1355;3026575;-60
2021/12/13 06:58:58;;;;;;;25.00;11.40;;;;;;;1.89;69.72;99889.14;24472;1358;3050970;-58
2021/12/13 07:01:30;;;;;;;21.00;11.80;;;;;;;1.72;70.06;99905.67;24449;1355;3053902;-59
2021/12/13 07:04:03;;;;;;;16.90;10.30;;;;;;;1.48;70.97;99912.98;24471;1355;3025848;-56
2021/12/13 07:06:32;;;;;;;21.40;11.20;;;;;;;1.44;71.25;99909.94;24458;1355;3026471;-56
2021/12/13 07:09:18;;;;;;;21.00;10.70;;;;;;;1.38;71.47;99918.14;24441;1358;3027709;-57
2021/12/13 07:11:56;;;;;;;25.10;11.40;;;;;;;1.34;71.71;99918.56;24476;1358;3052893;-61
2021/12/13 07:14:37;;;;;;;24.00;11.30;;;;;;;1.25;72.04;99910.93;24440;1361;3053816;-58
2021/12/13 07:17:17;;;;;;;22.60;11.80;;;;;;;1.29;72.40;99903.61;24441;1355;3071876;-59
2021/12/13 07:19:47;;;;;;;19.60;10.20;;;;;;;1.28;72.55;99900.53;24495;1356;3049241;-60
2021/12/13 07:22:29;;;;;;;21.60;11.30;;;;;;;1.18;72.40;99895.67;24507;1355;3026639;-59
2021/12/13 07:25:05;;;;;;;22.00;11.40;;;;;;;1.09;73.01;99890.28;24467;1355;3051697;-60
2021/12/13 07:27:36;;;;;;;22.00;11.50;;;;;;;1.03;73.28;99886.75;24458;1361;3059447;-59
2021/12/13 07:30:21;;;;;;;33.00;11.50;;;;;;;1.08;72.78;99889.27;24491;1361;3026527;-57
2021/12/13 07:32:54;;;;;;;21.90;11.60;;;;;;;1.10;73.20;99883.20;24481;1355;3055711;-56
2021/12/13 07:35:23;;;;;;;23.10;12.20;;;;;;;1.00;73.37;99878.34;24481;1355;3051563;-57
2021/12/13 07:37:54;;;;;;;24.40;11.10;;;;;;;1.05;73.38;99881.02;24489;1354;3028928;-60
2021/12/13 07:40:43;;;;;;;22.70;9.90;;;;;;;1.61;72.11;99877.17;24526;1355;3055808;-60
2021/12/13 07:43:19;;;;;;;22.50;10.40;;;;;;;2.29;69.79;99868.52;24465;1356;3052040;-58
2021/12/13 07:45:58;;;;;;;21.20;11.30;;;;;;;2.20;69.48;99876.29;24451;1353;3068968;-59
2021/12/13 07:48:41;;;;;;;21.20;10.20;;;;;;;2.16;69.79;99888.82;24438;1355;3052539;-58
2021/12/13 07:51:16;;;;;;;24.80;10.80;;;;;;;2.02;69.97;99897.02;24584;1354;3052438;-59
2021/12/13 07:53:57;;;;;;;24.90;12.50;;;;;;;1.86;70.39;99895.75;24556;1355;3054980;-60
2021/12/13 07:56:38;;;;;;;20.90;11.20;;;;;;;1.75;70.97;99891.30;24482;1355;3059953;-55
2021/12/13 07:59:08;;;;;;;23.30;11.30;;;;;;;1.60;71.38;99877.90;24436;1359;3054063;-57
2021/12/13 08:01:49;;;;;;;25.00;12.00;;;;;;;1.53;71.92;99875.44;24451;1361;3026532;-58
2021/12/13 08:04:24;;;;;;;22.10;11.20;;;;;;;1.57;71.81;99885.39;24464;1354;3053811;-58
2021/12/13 08:06:58;;;;;;;22.50;11.20;;;;;;;1.57;71.91;99890.05;24515;1358;3070904;-58
2021/12/13 08:09:28;;;;;;;19.20;12.70;;;;;;;1.46;72.25;99894.89;24446;1354;3049736;-57
2021/12/13 08:12:00;;;;;;;24.20;13.00;;;;;;;1.45;72.51;99900.42;24454;1355;3027285;-59
2021/12/13 08:14:36;;;;;;;24.40;12.10;;;;;;;1.44;72.43;99909.60;24494;1357;3029379;-58
2021/12/13 08:17:31;;;;;;;23.10;11.90;;;;;;;1.51;72.43;99910.00;24510;1349;3055215;-60
2021/12/13 08:20:04;;;;;;;21.20;11.50;;;;;;;1.48;72.37;99904.53;24471;1361;3050217;-56
2021/12/13 08:22:33;;;;;;;19.50;11.10;;;;;;;1.46;72.17;99900.77;24510;1354;3056049;-56
2021/12/13 08:25:08;;;;;;;22.10;12.00;;;;;;;1.44;72.47;99891.83;24467;1355;3027204;-58
2021/12/13 08:27:41;;;;;;;29.00;14.10;;;;;;;1.42;72.51;99888.39;24466;1355;3051999;-59
2021/12/13 08:30:25;;;;;;;18.60;11.30;;;;;;;1.33;73.03;99896.13;24486;1355;3026425;-57
2021/12/13 08:33:05;;;;;;;20.20;9.30;;;;;;;1.89;71.95;99892.23;20202;1355;3061810;-65
2021/12/13 08:35:46;;;;;;;20.20;9.30;;;;;;;2.41;69.31;99886.92;2121;1364;3229221;-64
2021/12/13 08:43:20;;;;;;;20.40;9.90;;;;;;;2.48;68.33;99887.83;8844;1360;3119319;-65
2021/12/13 08:55:07;;;;;;;19.80;11.00;;;;;;;1.85;70.96;99876.26;8027;1361;3144984;-63
2021/12/13 08:57:58;;;;;;;26.30;10.70;;;;;;;1.67;71.80;99871.58;8179;1365;3106743;-66
2021/12/13 09:01:10;;;;;;;20.60;11.40;;;;;;;1.66;71.95;99856.91;8630;1369;3141249;-64
2021/12/13 09:03:54;;;;;;;23.20;11.70;;;;;;;1.60;72.47;99858.56;8657;1364;3141907;-62
2021/12/13 09:06:56;;;;;;;26.50;13.90;;;;;;;1.59;72.50;99855.65;22186;1365;3105651;-58
2021/12/13 09:09:26;;;;;;;27.20;15.50;;;;;;;1.62;72.18;99858.53;24468;1361;3026711;-58
2021/12/13 09:11:59;;;;;;;27.80;15.50;;;;;;;1.60;72.18;99860.29;24456;1357;3026935;-58
2021/12/13 09:14:42;;;;;;;;;;;;;;;1.39;73.02;99854.95;24413;1361;3052447;-56
2021/12/13 09:17:23;;;;;;;25.30;13.10;;;;;;;1.27;73.38;99857.73;24499;1358;3050363;-58
2021/12/13 09:19:59;;;;;;;28.70;15.10;;;;;;;1.36;73.21;99847.76;24407;1361;3069025;-60
2021/12/13 09:22:42;;;;;;;24.90;13.20;;;;;;;1.41;73.41;99858.73;24501;1359;3048903;-61
2021/12/13 09:25:48;;;;;;;19.90;11.00;;;;;;;1.45;73.40;99859.69;24490;1358;3055213;-59
2021/12/13 09:28:31;;;;;;;14.20;7.80;;;;;;;2.29;70.83;99848.44;24453;1357;3052125;-61
2021/12/13 09:31:13;;;;;;;;;;;;;;;2.90;68.82;99841.79;24539;1358;3055947;-59
2021/12/13 09:33:49;;;;;;;18.50;10.20;;;;;;;2.69;68.74;99842.75;24454;1360;3052585;-59
2021/12/13 09:36:26;;;;;;;22.10;11.10;;;;;;;2.46;69.05;99841.53;24442;1357;3056176;-58
2021/12/13 09:39:04;;;;;;;17.00;10.10;;;;;;;2.34;69.42;99827.79;10808;1357;3085383;-58
2021/12/13 09:41:38;;;;;;;17.10;9.80;;;;;;;2.19;69.68;99819.09;24427;1361;3071427;-59
2021/12/13 09:44:10;;;;;;;20.90;10.10;;;;;;;2.04;70.56;99822.17;24379;1364;3026693;-59
2021/12/13 09:46:49;;;;;;;26.30;11.50;;;;;;;1.95;70.86;99823.89;24395;1358;3026733;-58
2021/12/13 09:49:32;;;;;;;24.50;12.10;;;;;;;1.87;71.50;99826.30;24423;1364;3053401;-58
2021/12/13 09:52:07;;;;;;;24.10;11.60;;;;;;;1.71;71.89;99820.71;24411;1358;3056899;-59
2021/12/13 09:54:44;;;;;;;19.80;11.50;;;;;;;1.65;71.87;99819.10;24431;1362;3050636;-60
2021/12/13 09:57:22;;;;;;;24.70;12.50;;;;;;;1.56;72.24;99820.66;24400;1364;3054473;-59
2021/12/13 09:59:52;;;;;;;32.20;12.20;;;;;;;1.59;72.15;99818.89;24462;1364;3054449;-57
2021/12/13 10:02:29;;;;;;;19.40;10.90;;;;;;;1.59;72.58;99820.08;24336;1357;3027295;-59
2021/12/13 10:04:59;;;;;;;25.10;12.80;;;;;;;1.61;72.62;99828.16;24417;1364;3051592;-57
2021/12/13 10:07:31;;;;;;;29.40;14.50;;;;;;;1.65;72.56;99823.77;24437;1358;3026872;-60
2021/12/13 10:10:12;;;;;;;25.70;14.40;;;;;;;1.57;72.72;99819.77;24491;1355;3027183;-60
2021/12/13 10:12:45;;;;;;;21.30;10.60;;;;;;;1.45;73.05;99811.86;24462;1354;3056045;-59
2021/12/13 10:15:19;;;;;;;21.60;11.40;;;;;;;2.09;71.78;99803.92;24443;1355;3028746;-59
2021/12/13 10:17:50;;;;;;;25.20;11.80;;;;;;;2.64;69.58;99801.69;24507;1358;3052484;-58
2021/12/13 10:20:27;;;;;;;30.30;13.50;;;;;;;2.70;69.01;99803.14;24463;1359;3026822;-59
2021/12/13 10:22:56;;;;;;;27.40;13.80;;;;;;;2.74;68.94;99802.69;24501;1359;3071617;-58
2021/12/13 10:25:31;;;;;;;25.80;10.50;;;;;;;2.62;69.09;99805.73;24448;1358;3026529;-60
2021/12/13 10:28:00;;;;;;;20.00;10.30;;;;;;;2.32;69.56;99808.63;24480;1355;3050608;-59
2021/12/13 10:30:33;;;;;;;16.00;9.40;;;;;;;2.09;70.14;99804.45;24474;1359;3026484;-59
2021/12/13 10:33:04;;;;;;;16.40;8.30;;;;;;;2.00;70.73;99806.17;24479;1355;3051053;-58
2021/12/13 10:35:37;;;;;;;15.00;8.90;;;;;;;1.97;70.75;99808.65;24451;1355;3030362;-60
2021/12/13 10:38:15;;;;;;;22.50;10.70;;;;;;;2.02;70.76;99805.44;24502;1355;3027867;-58
2021/12/13 10:40:57;;;;;;;22.80;10.80;;;;;;;1.97;71.24;99793.45;24477;1355;3056820;-58
2021/12/13 10:43:39;;;;;;;25.50;11.80;;;;;;;2.04;71.06;99794.00;24502;1361;3052509;-60
2021/12/13 10:46:12;;;;;;;27.10;13.00;;;;;;;1.94;71.40;99789.88;24547;1355;3055556;-57
2021/12/13 10:48:45;;;;;;;23.80;12.20;;;;;;;1.97;71.59;99791.71;24507;1355;3028256;-59
2021/12/13 10:51:16;;;;;;;23.00;13.40;;;;;;;1.93;71.77;99790.08;24467;1358;3070517;-56
2021/12/13 10:53:46;;;;;;;32.40;14.50;;;;;;;1.87;71.89;99793.83;24475;1355;3026922;-59
2021/12/13 10:56:40;;;;;;;27.90;13.30;;;;;;;1.84;72.16;99788.70;24482;1358;3027628;-57
2021/12/13 10:59:12;;;;;;;28.00;14.20;;;;;;;1.86;72.09;99792.98;24460;1355;3051688;-58
2021/12/13 11:01:43;;;;;;;21.40;11.50;;;;;;;1.79;72.48;99793.79;24478;1358;3027015;-58
2021/12/13 11:04:16;;;;;;;22.50;9.70;;;;;;;2.29;71.14;99788.80;24384;1361;3026506;-59
2021/12/13 11:06:46;;;;;;;17.80;9.30;;;;;;;2.92;69.15;99787.91;24407;1356;3027243;-59
2021/12/13 11:09:19;;;;;;;26.20;9.20;;;;;;;3.10;68.29;99791.97;24403;1358;3026943;-60
2021/12/13 11:11:52;;;;;;;26.10;12.50;;;;;;;3.06;68.20;99789.82;24449;1358;3067900;-57
2021/12/13 11:14:22;;;;;;;25.00;13.90;;;;;;;2.83;69.00;99789.68;24436;1357;3049119;-60
2021/12/13 11:16:57;;;;;;;28.90;13.30;;;;;;;2.70;69.26;99784.44;24414;1359;3027293;-59
2021/12/13 11:19:30;;;;;;;24.80;12.00;;;;;;;2.48;69.87;99777.00;24389;1358;3054385;-59
2021/12/13 11:22:03;;;;;;;23.70;12.00;;;;;;;2.30;70.17;99773.75;24379;1357;3028834;-58
2021/12/13 11:24:33;;;;;;;24.30;11.80;;;;;;;2.20;70.72;99766.89;24431;1358;3027326;-59
2021/12/13 11:27:31;;;;;;;25.70;12.00;;;;;;;2.12;71.13;99764.98;8288;1361;3095005;-64
2021/12/13 11:39:03;;;;;;;21.20;9.90;;;;;;;2.00;71.92;99753.98;13683;1352;3105634;-64
2021/12/13 11:43:05;;;;;;;19.20;11.10;;;;;;;2.06;71.88;99758.52;8758;1362;3068112;-63
2021/12/13 11:46:32;;;;;;;25.00;13.00;;;;;;;1.99;71.95;99763.34;10470;1368;3063139;-63
2021/12/13 11:50:22;;;;;;;22.70;11.80;;;;;;;1.99;72.21;99772.51;10628;1376;3063178;-59
2021/12/13 11:53:46;;;;;;;23.40;10.20;;;;;;;2.01;72.20;99779.70;10611;1375;3066692;-64
2021/12/13 11:57:13;;;;;;;20.50;10.10;;;;;;;2.05;72.19;99783.09;10381;1377;3058964;-64
2021/12/13 12:00:53;;;;;;;21.80;11.10;;;;;;;2.00;72.25;99789.25;9331;1368;3121122;-63
2021/12/13 12:04:22;;;;;;;23.40;11.60;;;;;;;2.00;72.18;99793.05;10544;1378;3060198;-63
2021/12/13 12:08:12;;;;;;;22.30;12.00;;;;;;;2.04;72.09;99791.75;9984;1379;3082642;-61
2021/12/13 12:11:54;;;;;;;;;;;;;;;;;;;;;
2021/12/13 12:15:19;;;;;;;24.10;12.90;;;;;;;2.30;71.66;99776.33;9544;1374;3063030;-63
2021/12/13 12:18:45;;;;;;;26.20;12.00;;;;;;;3.58;68.10;99774.09;9130;1372;3071248;-64
2021/12/13 12:22:13;;;;;;;23.40;11.20;;;;;;;3.79;66.95;99780.13;9097;1383;3079571;-63
2021/12/13 12:25:32;;;;;;;22.80;11.50;;;;;;;3.56;66.99;99786.46;9310;1364;3064533;-63
2021/12/13 12:32:41;;;;;;;23.30;11.60;;;;;;;3.15;68.35;99782.83;9319;1368;3074963;-64
2021/12/13 12:35:40;;;;;;;18.30;9.40;;;;;;;2.94;69.07;99774.88;9418;1381;3091560;-63
2021/12/13 12:39:21;;;;;;;18.60;9.40;;;;;;;2.67;70.18;99773.80;8871;1375;3059335;-63
2021/12/13 12:42:33;;;;;;;23.30;11.90;;;;;;;2.56;70.62;99766.95;9342;1376;3073491;-64
2021/12/13 12:45:51;;;;;;;23.00;10.00;;;;;;;2.52;70.79;99767.91;9391;1376;3065010;-64
2021/12/13 12:49:44;;;;;;;16.20;9.30;;;;;;;2.43;71.43;99776.74;9328;1373;3071556;-62
2021/12/13 12:52:27;;;;;;;15.70;8.30;;;;;;;2.38;71.64;99775.12;9122;1389;3061883;-65
2021/12/13 12:55:40;;;;;;;18.70;8.80;;;;;;;2.30;71.93;99778.75;9129;1381;3066735;-62
2021/12/13 12:59:50;;;;;;;18.40;8.50;;;;;;;2.32;71.92;99781.83;9392;1373;3068292;-67
2021/12/13 13:03:12;;;;;;;19.80;8.70;;;;;;;2.25;72.32;99771.97;9138;1377;3082721;-65